sensor_id;sensor_type;location;lat;lon;timestamp;P1;durP1;ratioP1;P2;durP2;ratioP2
20040;SDS011;10181;48.072;9.884;2023-02-15T00:01:10;10.13;;;9.20;;
20040;SDS011;10181;48.072;9.884;2023-02-15T00:03:37;9.53;;;8.73;;
20040;SDS011;10181;48.072;9.884;2023-02-15T00:06:03;9.87;;;8.97;;
20040;SDS011;10181;48.072;9.884;2023-02-15T00:08:30;10.77;;;9.83;;
20040;SDS011;10181;48.072;9.884;2023-02-15T00:14:21;11.57;;;10.53;;
20040;SDS011;10181;48.072;9.884;2023-02-15T00:16:49;11.53;;;10.73;;
20040;SDS011;10181;48.072;9.884;2023-02-15T00:19:16;11.27;;;10.47;;
20040;SDS011;10181;48.072;9.884;2023-02-15T00:21:43;11.60;;;10.77;;
20040;SDS011;10181;48.072;9.884;2023-02-15T00:24:10;14.83;;;13.83;;
20040;SDS011;10181;48.072;9.884;2023-02-15T00:26:38;14.27;;;13.10;;
20040;SDS011;10181;48.072;9.884;2023-02-15T00:29:04;12.43;;;11.47;;
20040;SDS011;10181;48.072;9.884;2023-02-15T00:31:31;13.33;;;12.23;;
20040;SDS011;10181;48.072;9.884;2023-02-15T00:34:03;14.67;;;13.67;;
20040;SDS011;10181;48.072;9.884;2023-02-15T00:36:37;16.90;;;15.80;;
20040;SDS011;10181;48.072;9.884;2023-02-15T00:39:03;15.37;;;14.37;;
20040;SDS011;10181;48.072;9.884;2023-02-15T00:41:29;17.77;;;16.60;;
20040;SDS011;10181;48.072;9.884;2023-02-15T00:43:56;17.87;;;16.47;;
20040;SDS011;10181;48.072;9.884;2023-02-15T00:46:21;17.33;;;15.90;;
20040;SDS011;10181;48.072;9.884;2023-02-15T00:48:47;15.70;;;14.73;;
20040;SDS011;10181;48.072;9.884;2023-02-15T00:51:13;17.93;;;16.73;;
20040;SDS011;10181;48.072;9.884;2023-02-15T00:53:38;18.67;;;17.50;;
20040;SDS011;10181;48.072;9.884;2023-02-15T00:56:04;18.77;;;17.67;;
20040;SDS011;10181;48.072;9.884;2023-02-15T00:58:30;20.63;;;19.20;;
20040;SDS011;10181;48.072;9.884;2023-02-15T01:01:01;21.97;;;20.67;;
20040;SDS011;10181;48.072;9.884;2023-02-15T01:03:32;23.70;;;22.23;;
20040;SDS011;10181;48.072;9.884;2023-02-15T01:05:59;23.53;;;22.20;;
20040;SDS011;10181;48.072;9.884;2023-02-15T01:08:25;22.93;;;21.60;;
20040;SDS011;10181;48.072;9.884;2023-02-15T01:10:51;25.73;;;24.37;;
20040;SDS011;10181;48.072;9.884;2023-02-15T01:13:17;26.73;;;25.10;;
20040;SDS011;10181;48.072;9.884;2023-02-15T01:15:43;27.23;;;25.73;;
20040;SDS011;10181;48.072;9.884;2023-02-15T01:18:09;27.30;;;25.80;;
20040;SDS011;10181;48.072;9.884;2023-02-15T01:20:36;28.07;;;26.57;;
20040;SDS011;10181;48.072;9.884;2023-02-15T01:23:04;24.07;;;22.77;;
20040;SDS011;10181;48.072;9.884;2023-02-15T01:25:32;24.50;;;23.13;;
20040;SDS011;10181;48.072;9.884;2023-02-15T01:28:00;26.10;;;24.70;;
20040;SDS011;10181;48.072;9.884;2023-02-15T01:30:25;22.30;;;21.00;;
20040;SDS011;10181;48.072;9.884;2023-02-15T01:32:51;22.10;;;20.90;;
20040;SDS011;10181;48.072;9.884;2023-02-15T01:35:17;18.80;;;17.80;;
20040;SDS011;10181;48.072;9.884;2023-02-15T01:37:42;17.90;;;16.80;;
20040;SDS011;10181;48.072;9.884;2023-02-15T01:40:11;15.97;;;14.80;;
20040;SDS011;10181;48.072;9.884;2023-02-15T01:42:40;13.83;;;12.97;;
20040;SDS011;10181;48.072;9.884;2023-02-15T01:45:27;15.93;;;14.57;;
20040;SDS011;10181;48.072;9.884;2023-02-15T01:53:19;9.60;;;8.80;;
20040;SDS011;10181;48.072;9.884;2023-02-15T01:55:55;9.30;;;8.53;;
20040;SDS011;10181;48.072;9.884;2023-02-15T01:58:26;9.80;;;9.13;;
20040;SDS011;10181;48.072;9.884;2023-02-15T02:00:54;9.80;;;9.00;;
20040;SDS011;10181;48.072;9.884;2023-02-15T02:03:24;8.50;;;7.77;;
20040;SDS011;10181;48.072;9.884;2023-02-15T02:06:03;7.63;;;6.77;;
20040;SDS011;10181;48.072;9.884;2023-02-15T02:08:29;8.87;;;8.07;;
20040;SDS011;10181;48.072;9.884;2023-02-15T02:10:55;8.43;;;7.80;;
20040;SDS011;10181;48.072;9.884;2023-02-15T02:13:21;7.23;;;6.63;;
20040;SDS011;10181;48.072;9.884;2023-02-15T02:15:54;8.27;;;7.57;;
20040;SDS011;10181;48.072;9.884;2023-02-15T02:18:41;6.17;;;5.67;;
20040;SDS011;10181;48.072;9.884;2023-02-15T02:27:21;7.07;;;6.37;;
20040;SDS011;10181;48.072;9.884;2023-02-15T02:35:49;7.47;;;6.77;;
20040;SDS011;10181;48.072;9.884;2023-02-15T02:47:00;8.90;;;7.80;;
20040;SDS011;10181;48.072;9.884;2023-02-15T02:49:42;7.37;;;6.77;;
20040;SDS011;10181;48.072;9.884;2023-02-15T02:57:33;7.27;;;6.67;;
20040;SDS011;10181;48.072;9.884;2023-02-15T03:00:02;7.00;;;6.40;;
20040;SDS011;10181;48.072;9.884;2023-02-15T03:02:30;7.47;;;6.90;;
20040;SDS011;10181;48.072;9.884;2023-02-15T03:05:04;6.97;;;6.37;;
20040;SDS011;10181;48.072;9.884;2023-02-15T03:07:33;6.73;;;6.13;;
20040;SDS011;10181;48.072;9.884;2023-02-15T03:10:02;7.87;;;7.07;;
20040;SDS011;10181;48.072;9.884;2023-02-15T03:12:37;6.30;;;5.80;;
20040;SDS011;10181;48.072;9.884;2023-02-15T03:17:34;6.30;;;5.80;;
20040;SDS011;10181;48.072;9.884;2023-02-15T03:20:06;6.47;;;5.97;;
20040;SDS011;10181;48.072;9.884;2023-02-15T03:22:40;7.80;;;7.30;;
20040;SDS011;10181;48.072;9.884;2023-02-15T03:25:13;7.53;;;6.90;;
20040;SDS011;10181;48.072;9.884;2023-02-15T03:27:45;9.33;;;8.57;;
20040;SDS011;10181;48.072;9.884;2023-02-15T03:30:19;8.53;;;7.83;;
20040;SDS011;10181;48.072;9.884;2023-02-15T03:32:47;9.40;;;8.63;;
20040;SDS011;10181;48.072;9.884;2023-02-15T03:35:14;9.80;;;9.10;;
20040;SDS011;10181;48.072;9.884;2023-02-15T03:40:29;11.33;;;10.53;;
20040;SDS011;10181;48.072;9.884;2023-02-15T03:46:15;12.07;;;11.07;;
20040;SDS011;10181;48.072;9.884;2023-02-15T03:49:07;45.37;;;42.57;;
20040;SDS011;10181;48.072;9.884;2023-02-15T03:51:35;62.17;;;59.47;;
20040;SDS011;10181;48.072;9.884;2023-02-15T03:54:08;59.63;;;57.00;;
20040;SDS011;10181;48.072;9.884;2023-02-15T03:56:37;67.57;;;64.20;;
20040;SDS011;10181;48.072;9.884;2023-02-15T03:59:05;65.43;;;62.40;;
20040;SDS011;10181;48.072;9.884;2023-02-15T04:02:02;70.20;;;66.63;;
20040;SDS011;10181;48.072;9.884;2023-02-15T04:04:46;55.53;;;52.90;;
20040;SDS011;10181;48.072;9.884;2023-02-15T04:07:12;56.10;;;52.47;;
20040;SDS011;10181;48.072;9.884;2023-02-15T04:09:38;43.57;;;40.43;;
20040;SDS011;10181;48.072;9.884;2023-02-15T04:12:22;19.20;;;17.50;;
20040;SDS011;10181;48.072;9.884;2023-02-15T04:14:48;11.60;;;10.53;;
20040;SDS011;10181;48.072;9.884;2023-02-15T04:17:32;20.10;;;7.63;;
20040;SDS011;10181;48.072;9.884;2023-02-15T04:19:58;23.47;;;7.50;;
20040;SDS011;10181;48.072;9.884;2023-02-15T04:22:42;9.00;;;8.00;;
20040;SDS011;10181;48.072;9.884;2023-02-15T04:25:26;12.67;;;8.03;;
20040;SDS011;10181;48.072;9.884;2023-02-15T04:27:52;9.83;;;7.83;;
20040;SDS011;10181;48.072;9.884;2023-02-15T04:30:23;19.77;;;9.03;;
20040;SDS011;10181;48.072;9.884;2023-02-15T04:32:50;10.57;;;9.23;;
20040;SDS011;10181;48.072;9.884;2023-02-15T04:35:16;8.73;;;8.03;;
20040;SDS011;10181;48.072;9.884;2023-02-15T04:37:42;18.33;;;9.07;;
20040;SDS011;10181;48.072;9.884;2023-02-15T04:40:10;25.43;;;9.23;;
20040;SDS011;10181;48.072;9.884;2023-02-15T04:42:37;62.80;;;9.33;;
20040;SDS011;10181;48.072;9.884;2023-02-15T04:45:02;9.13;;;7.57;;
20040;SDS011;10181;48.072;9.884;2023-02-15T04:47:29;13.77;;;8.93;;
20040;SDS011;10181;48.072;9.884;2023-02-15T04:49:55;9.63;;;5.83;;
20040;SDS011;10181;48.072;9.884;2023-02-15T04:52:20;6.83;;;6.23;;
20040;SDS011;10181;48.072;9.884;2023-02-15T04:54:46;25.40;;;7.77;;
20040;SDS011;10181;48.072;9.884;2023-02-15T04:57:12;13.23;;;8.03;;
20040;SDS011;10181;48.072;9.884;2023-02-15T04:59:38;33.67;;;7.87;;
20040;SDS011;10181;48.072;9.884;2023-02-15T05:02:03;7.87;;;7.10;;
20040;SDS011;10181;48.072;9.884;2023-02-15T05:04:29;12.00;;;7.53;;
20040;SDS011;10181;48.072;9.884;2023-02-15T05:06:54;27.30;;;8.93;;
20040;SDS011;10181;48.072;9.884;2023-02-15T05:09:20;25.87;;;8.80;;
20040;SDS011;10181;48.072;9.884;2023-02-15T05:11:46;8.30;;;7.50;;
20040;SDS011;10181;48.072;9.884;2023-02-15T05:14:11;32.77;;;9.90;;
20040;SDS011;10181;48.072;9.884;2023-02-15T05:16:37;12.30;;;8.20;;
20040;SDS011;10181;48.072;9.884;2023-02-15T05:19:03;48.00;;;10.50;;
20040;SDS011;10181;48.072;9.884;2023-02-15T05:21:29;10.93;;;9.93;;
20040;SDS011;10181;48.072;9.884;2023-02-15T05:23:55;17.33;;;15.67;;
20040;SDS011;10181;48.072;9.884;2023-02-15T05:26:21;28.37;;;15.50;;
20040;SDS011;10181;48.072;9.884;2023-02-15T05:29:07;28.37;;;12.03;;
20040;SDS011;10181;48.072;9.884;2023-02-15T05:31:34;65.17;;;12.87;;
20040;SDS011;10181;48.072;9.884;2023-02-15T05:34:00;12.93;;;8.90;;
20040;SDS011;10181;48.072;9.884;2023-02-15T05:36:26;9.97;;;8.87;;
20040;SDS011;10181;48.072;9.884;2023-02-15T05:38:53;63.23;;;14.63;;
20040;SDS011;10181;48.072;9.884;2023-02-15T05:41:18;54.23;;;14.27;;
20040;SDS011;10181;48.072;9.884;2023-02-15T05:43:44;57.30;;;12.53;;
20040;SDS011;10181;48.072;9.884;2023-02-15T05:46:10;28.23;;;10.53;;
20040;SDS011;10181;48.072;9.884;2023-02-15T05:48:36;31.50;;;11.67;;
20040;SDS011;10181;48.072;9.884;2023-02-15T05:51:03;14.40;;;12.10;;
20040;SDS011;10181;48.072;9.884;2023-02-15T05:53:32;12.03;;;9.83;;
20040;SDS011;10181;48.072;9.884;2023-02-15T05:55:59;134.67;;;71.20;;
20040;SDS011;10181;48.072;9.884;2023-02-15T05:58:27;117.00;;;58.50;;
20040;SDS011;10181;48.072;9.884;2023-02-15T06:00:54;44.57;;;40.23;;
20040;SDS011;10181;48.072;9.884;2023-02-15T06:03:20;49.27;;;46.23;;
20040;SDS011;10181;48.072;9.884;2023-02-15T06:05:46;65.03;;;61.50;;
20040;SDS011;10181;48.072;9.884;2023-02-15T06:08:12;79.00;;;74.03;;
20040;SDS011;10181;48.072;9.884;2023-02-15T06:10:39;57.97;;;55.07;;
20040;SDS011;10181;48.072;9.884;2023-02-15T06:13:09;47.63;;;45.07;;
20040;SDS011;10181;48.072;9.884;2023-02-15T06:15:34;29.40;;;27.27;;
20040;SDS011;10181;48.072;9.884;2023-02-15T06:18:00;26.20;;;23.50;;
20040;SDS011;10181;48.072;9.884;2023-02-15T06:20:25;22.90;;;20.43;;
20040;SDS011;10181;48.072;9.884;2023-02-15T06:22:51;38.43;;;35.87;;
20040;SDS011;10181;48.072;9.884;2023-02-15T06:25:17;38.07;;;35.20;;
20040;SDS011;10181;48.072;9.884;2023-02-15T06:27:43;31.73;;;29.23;;
20040;SDS011;10181;48.072;9.884;2023-02-15T06:30:09;28.63;;;26.83;;
20040;SDS011;10181;48.072;9.884;2023-02-15T06:32:35;39.60;;;35.53;;
20040;SDS011;10181;48.072;9.884;2023-02-15T06:35:01;74.50;;;69.70;;
20040;SDS011;10181;48.072;9.884;2023-02-15T06:37:27;77.93;;;72.93;;
20040;SDS011;10181;48.072;9.884;2023-02-15T06:39:53;77.47;;;73.67;;
20040;SDS011;10181;48.072;9.884;2023-02-15T06:42:19;61.83;;;58.23;;
20040;SDS011;10181;48.072;9.884;2023-02-15T06:44:44;56.90;;;53.70;;
20040;SDS011;10181;48.072;9.884;2023-02-15T06:47:10;49.83;;;47.00;;
20040;SDS011;10181;48.072;9.884;2023-02-15T06:49:36;52.07;;;48.93;;
20040;SDS011;10181;48.072;9.884;2023-02-15T06:52:02;62.03;;;58.90;;
20040;SDS011;10181;48.072;9.884;2023-02-15T06:54:29;75.03;;;71.23;;
20040;SDS011;10181;48.072;9.884;2023-02-15T06:56:54;83.67;;;79.37;;
20040;SDS011;10181;48.072;9.884;2023-02-15T06:59:20;71.63;;;67.73;;
20040;SDS011;10181;48.072;9.884;2023-02-15T07:01:46;82.83;;;78.80;;
20040;SDS011;10181;48.072;9.884;2023-02-15T07:04:12;80.63;;;76.83;;
20040;SDS011;10181;48.072;9.884;2023-02-15T07:06:37;79.67;;;75.60;;
20040;SDS011;10181;48.072;9.884;2023-02-15T07:09:03;83.17;;;79.13;;
20040;SDS011;10181;48.072;9.884;2023-02-15T07:11:29;77.20;;;73.43;;
20040;SDS011;10181;48.072;9.884;2023-02-15T07:14:14;73.77;;;70.10;;
20040;SDS011;10181;48.072;9.884;2023-02-15T07:16:40;80.40;;;76.77;;
20040;SDS011;10181;48.072;9.884;2023-02-15T07:19:05;79.73;;;75.80;;
20040;SDS011;10181;48.072;9.884;2023-02-15T07:21:32;79.30;;;75.37;;
20040;SDS011;10181;48.072;9.884;2023-02-15T07:23:58;77.67;;;73.40;;
20040;SDS011;10181;48.072;9.884;2023-02-15T07:26:24;41.90;;;35.63;;
20040;SDS011;10181;48.072;9.884;2023-02-15T07:28:50;21.63;;;11.67;;
20040;SDS011;10181;48.072;9.884;2023-02-15T07:31:16;15.20;;;13.80;;
20040;SDS011;10181;48.072;9.884;2023-02-15T07:33:41;15.80;;;14.30;;
20040;SDS011;10181;48.072;9.884;2023-02-15T07:36:07;16.70;;;13.70;;
20040;SDS011;10181;48.072;9.884;2023-02-15T07:38:36;17.57;;;15.97;;
20040;SDS011;10181;48.072;9.884;2023-02-15T07:41:07;27.63;;;21.07;;
20040;SDS011;10181;48.072;9.884;2023-02-15T07:43:36;24.77;;;22.33;;
20040;SDS011;10181;48.072;9.884;2023-02-15T07:46:04;30.53;;;27.50;;
20040;SDS011;10181;48.072;9.884;2023-02-15T07:48:32;29.43;;;27.20;;
20040;SDS011;10181;48.072;9.884;2023-02-15T07:50:58;25.03;;;23.33;;
20040;SDS011;10181;48.072;9.884;2023-02-15T07:53:28;20.77;;;18.83;;
20040;SDS011;10181;48.072;9.884;2023-02-15T07:55:54;25.77;;;23.87;;
20040;SDS011;10181;48.072;9.884;2023-02-15T07:58:23;30.17;;;25.87;;
20040;SDS011;10181;48.072;9.884;2023-02-15T08:01:09;29.40;;;26.80;;
20040;SDS011;10181;48.072;9.884;2023-02-15T08:03:34;30.60;;;27.70;;
20040;SDS011;10181;48.072;9.884;2023-02-15T08:06:00;18.67;;;16.77;;
20040;SDS011;10181;48.072;9.884;2023-02-15T08:08:26;15.77;;;13.43;;
20040;SDS011;10181;48.072;9.884;2023-02-15T08:14:14;15.37;;;10.90;;
20040;SDS011;10181;48.072;9.884;2023-02-15T08:19:09;20.07;;;13.70;;
20040;SDS011;10181;48.072;9.884;2023-02-15T08:21:47;17.77;;;13.50;;
20040;SDS011;10181;48.072;9.884;2023-02-15T08:24:15;19.30;;;15.53;;
20040;SDS011;10181;48.072;9.884;2023-02-15T08:26:42;19.67;;;17.37;;
20040;SDS011;10181;48.072;9.884;2023-02-15T08:29:11;28.77;;;26.10;;
20040;SDS011;10181;48.072;9.884;2023-02-15T08:31:38;34.43;;;31.73;;
20040;SDS011;10181;48.072;9.884;2023-02-15T08:34:06;32.63;;;29.53;;
20040;SDS011;10181;48.072;9.884;2023-02-15T08:36:33;50.80;;;33.07;;
20040;SDS011;10181;48.072;9.884;2023-02-15T08:38:59;27.73;;;25.20;;
20040;SDS011;10181;48.072;9.884;2023-02-15T08:41:28;22.53;;;20.20;;
20040;SDS011;10181;48.072;9.884;2023-02-15T08:43:56;17.67;;;15.83;;
20040;SDS011;10181;48.072;9.884;2023-02-15T08:46:24;17.83;;;13.60;;
20040;SDS011;10181;48.072;9.884;2023-02-15T08:48:51;20.87;;;13.73;;
20040;SDS011;10181;48.072;9.884;2023-02-15T08:51:18;21.13;;;13.43;;
20040;SDS011;10181;48.072;9.884;2023-02-15T08:53:47;19.20;;;12.43;;
20040;SDS011;10181;48.072;9.884;2023-02-15T08:56:14;17.17;;;11.67;;
20040;SDS011;10181;48.072;9.884;2023-02-15T08:58:40;17.67;;;13.17;;
20040;SDS011;10181;48.072;9.884;2023-02-15T09:01:10;18.00;;;12.30;;
20040;SDS011;10181;48.072;9.884;2023-02-15T09:03:43;16.40;;;13.73;;
20040;SDS011;10181;48.072;9.884;2023-02-15T09:06:09;21.53;;;19.53;;
20040;SDS011;10181;48.072;9.884;2023-02-15T09:08:35;30.77;;;28.27;;
20040;SDS011;10181;48.072;9.884;2023-02-15T09:11:08;29.70;;;26.90;;
20040;SDS011;10181;48.072;9.884;2023-02-15T09:13:36;23.03;;;20.80;;
20040;SDS011;10181;48.072;9.884;2023-02-15T09:16:04;18.80;;;16.93;;
20040;SDS011;10181;48.072;9.884;2023-02-15T09:18:32;18.93;;;15.70;;
20040;SDS011;10181;48.072;9.884;2023-02-15T09:21:07;16.60;;;13.43;;
20040;SDS011;10181;48.072;9.884;2023-02-15T09:23:41;16.60;;;12.47;;
20040;SDS011;10181;48.072;9.884;2023-02-15T09:26:09;15.50;;;11.80;;
20040;SDS011;10181;48.072;9.884;2023-02-15T09:28:40;14.60;;;12.47;;
20040;SDS011;10181;48.072;9.884;2023-02-15T09:31:16;16.80;;;12.80;;
20040;SDS011;10181;48.072;9.884;2023-02-15T09:33:44;13.70;;;11.07;;
20040;SDS011;10181;48.072;9.884;2023-02-15T09:38:39;15.40;;;11.73;;
20040;SDS011;10181;48.072;9.884;2023-02-15T09:43:52;12.23;;;10.07;;
20040;SDS011;10181;48.072;9.884;2023-02-15T09:49:15;18.17;;;11.87;;
20040;SDS011;10181;48.072;9.884;2023-02-15T09:51:53;14.17;;;11.23;;
20040;SDS011;10181;48.072;9.884;2023-02-15T10:05:30;106.90;;;101.33;;
20040;SDS011;10181;48.072;9.884;2023-02-15T10:08:32;180.00;;;171.93;;
20040;SDS011;10181;48.072;9.884;2023-02-15T10:27:37;203.07;;;193.30;;
20040;SDS011;10181;48.072;9.884;2023-02-15T10:30:13;162.30;;;154.50;;
20040;SDS011;10181;48.072;9.884;2023-02-15T10:32:41;137.47;;;130.63;;
20040;SDS011;10181;48.072;9.884;2023-02-15T10:38:06;99.07;;;93.67;;
20040;SDS011;10181;48.072;9.884;2023-02-15T10:40:51;55.67;;;51.57;;
20040;SDS011;10181;48.072;9.884;2023-02-15T10:43:46;37.97;;;34.50;;
20040;SDS011;10181;48.072;9.884;2023-02-15T10:46:23;27.00;;;24.17;;
20040;SDS011;10181;48.072;9.884;2023-02-15T10:54:49;32.13;;;29.13;;
20040;SDS011;10181;48.072;9.884;2023-02-15T11:00:32;25.60;;;18.93;;
20040;SDS011;10181;48.072;9.884;2023-02-15T11:08:37;21.83;;;17.13;;
20040;SDS011;10181;48.072;9.884;2023-02-15T11:11:19;24.30;;;17.00;;
20040;SDS011;10181;48.072;9.884;2023-02-15T11:13:47;22.37;;;15.67;;
20040;SDS011;10181;48.072;9.884;2023-02-15T11:16:16;22.80;;;18.77;;
20040;SDS011;10181;48.072;9.884;2023-02-15T11:18:56;37.27;;;33.87;;
20040;SDS011;10181;48.072;9.884;2023-02-15T11:21:27;29.17;;;26.10;;
20040;SDS011;10181;48.072;9.884;2023-02-15T11:23:54;19.80;;;14.13;;
20040;SDS011;10181;48.072;9.884;2023-02-15T11:26:22;15.17;;;10.80;;
20040;SDS011;10181;48.072;9.884;2023-02-15T11:29:10;17.13;;;15.33;;
20040;SDS011;10181;48.072;9.884;2023-02-15T11:32:02;18.33;;;15.77;;
20040;SDS011;10181;48.072;9.884;2023-02-15T11:34:53;18.57;;;16.63;;
20040;SDS011;10181;48.072;9.884;2023-02-15T11:37:34;17.87;;;16.07;;
20040;SDS011;10181;48.072;9.884;2023-02-15T11:40:14;17.83;;;13.37;;
20040;SDS011;10181;48.072;9.884;2023-02-15T11:42:46;16.83;;;14.17;;
20040;SDS011;10181;48.072;9.884;2023-02-15T11:45:19;17.57;;;13.40;;
20040;SDS011;10181;48.072;9.884;2023-02-15T11:47:59;17.47;;;11.77;;
20040;SDS011;10181;48.072;9.884;2023-02-15T11:50:29;16.20;;;12.53;;
20040;SDS011;10181;48.072;9.884;2023-02-15T11:53:01;13.97;;;11.37;;
20040;SDS011;10181;48.072;9.884;2023-02-15T11:55:30;17.73;;;10.67;;
20040;SDS011;10181;48.072;9.884;2023-02-15T11:58:08;16.17;;;11.80;;
20040;SDS011;10181;48.072;9.884;2023-02-15T12:01:13;37.23;;;34.70;;
20040;SDS011;10181;48.072;9.884;2023-02-15T12:03:50;19.57;;;17.70;;
20040;SDS011;10181;48.072;9.884;2023-02-15T12:06:22;11.93;;;9.70;;
20040;SDS011;10181;48.072;9.884;2023-02-15T12:09:05;16.37;;;12.13;;
20040;SDS011;10181;48.072;9.884;2023-02-15T12:11:52;16.60;;;11.83;;
20040;SDS011;10181;48.072;9.884;2023-02-15T12:14:18;28.97;;;27.03;;
20040;SDS011;10181;48.072;9.884;2023-02-15T12:16:45;12.50;;;9.83;;
20040;SDS011;10181;48.072;9.884;2023-02-15T12:19:22;12.70;;;11.40;;
20040;SDS011;10181;48.072;9.884;2023-02-15T12:21:58;11.13;;;8.87;;
20040;SDS011;10181;48.072;9.884;2023-02-15T12:24:32;13.37;;;9.67;;
20040;SDS011;10181;48.072;9.884;2023-02-15T12:27:06;11.23;;;8.97;;
20040;SDS011;10181;48.072;9.884;2023-02-15T12:29:51;13.43;;;9.23;;
20040;SDS011;10181;48.072;9.884;2023-02-15T12:32:30;12.27;;;10.73;;
20040;SDS011;10181;48.072;9.884;2023-02-15T12:35:01;12.27;;;11.03;;
20040;SDS011;10181;48.072;9.884;2023-02-15T12:37:37;14.57;;;12.33;;
20040;SDS011;10181;48.072;9.884;2023-02-15T12:40:18;13.40;;;11.93;;
20040;SDS011;10181;48.072;9.884;2023-02-15T12:42:46;14.00;;;12.60;;
20040;SDS011;10181;48.072;9.884;2023-02-15T12:45:31;15.67;;;13.80;;
20040;SDS011;10181;48.072;9.884;2023-02-15T12:48:15;17.23;;;15.57;;
20040;SDS011;10181;48.072;9.884;2023-02-15T12:50:46;12.87;;;11.47;;
20040;SDS011;10181;48.072;9.884;2023-02-15T12:55:57;14.17;;;12.70;;
20040;SDS011;10181;48.072;9.884;2023-02-15T12:58:24;17.97;;;16.27;;
20040;SDS011;10181;48.072;9.884;2023-02-15T13:06:23;11.67;;;10.60;;
20040;SDS011;10181;48.072;9.884;2023-02-15T13:08:50;11.40;;;9.37;;
20040;SDS011;10181;48.072;9.884;2023-02-15T13:11:21;26.00;;;24.33;;
20040;SDS011;10181;48.072;9.884;2023-02-15T13:14:03;64.17;;;60.80;;
20040;SDS011;10181;48.072;9.884;2023-02-15T13:16:43;33.13;;;31.10;;
20040;SDS011;10181;48.072;9.884;2023-02-15T13:21:51;27.43;;;25.53;;
20040;SDS011;10181;48.072;9.884;2023-02-15T13:24:29;34.27;;;32.20;;
20040;SDS011;10181;48.072;9.884;2023-02-15T13:27:02;36.67;;;34.20;;
20040;SDS011;10181;48.072;9.884;2023-02-15T13:29:29;18.13;;;16.73;;
20040;SDS011;10181;48.072;9.884;2023-02-15T13:31:57;99.63;;;94.93;;
20040;SDS011;10181;48.072;9.884;2023-02-15T13:34:32;90.77;;;86.40;;
20040;SDS011;10181;48.072;9.884;2023-02-15T13:40:22;119.60;;;114.30;;
20040;SDS011;10181;48.072;9.884;2023-02-15T13:43:01;28.67;;;26.80;;
20040;SDS011;10181;48.072;9.884;2023-02-15T13:50:52;14.57;;;13.23;;
20040;SDS011;10181;48.072;9.884;2023-02-15T13:53:38;16.37;;;15.00;;
20040;SDS011;10181;48.072;9.884;2023-02-15T13:59:16;13.93;;;12.60;;
20040;SDS011;10181;48.072;9.884;2023-02-15T14:07:20;22.80;;;20.93;;
20040;SDS011;10181;48.072;9.884;2023-02-15T14:15:47;72.07;;;68.17;;
20040;SDS011;10181;48.072;9.884;2023-02-15T14:18:25;80.73;;;76.67;;
20040;SDS011;10181;48.072;9.884;2023-02-15T14:26:59;13.90;;;10.93;;
20040;SDS011;10181;48.072;9.884;2023-02-15T14:32:24;17.90;;;16.20;;
20040;SDS011;10181;48.072;9.884;2023-02-15T14:35:01;13.37;;;11.30;;
20040;SDS011;10181;48.072;9.884;2023-02-15T14:37:40;15.60;;;14.10;;
20040;SDS011;10181;48.072;9.884;2023-02-15T14:48:28;58.50;;;55.00;;
20040;SDS011;10181;48.072;9.884;2023-02-15T14:50:58;62.30;;;58.90;;
20040;SDS011;10181;48.072;9.884;2023-02-15T14:53:37;14.67;;;10.97;;
20040;SDS011;10181;48.072;9.884;2023-02-15T14:58:36;12.07;;;10.07;;
20040;SDS011;10181;48.072;9.884;2023-02-15T15:01:09;15.17;;;10.97;;
20040;SDS011;10181;48.072;9.884;2023-02-15T15:03:35;19.57;;;17.93;;
20040;SDS011;10181;48.072;9.884;2023-02-15T15:06:21;15.23;;;12.47;;
20040;SDS011;10181;48.072;9.884;2023-02-15T15:08:54;14.07;;;12.53;;
20040;SDS011;10181;48.072;9.884;2023-02-15T15:13:57;13.43;;;12.17;;
20040;SDS011;10181;48.072;9.884;2023-02-15T15:19:11;19.27;;;16.73;;
20040;SDS011;10181;48.072;9.884;2023-02-15T15:24:45;20.60;;;18.90;;
20040;SDS011;10181;48.072;9.884;2023-02-15T15:32:38;42.67;;;40.27;;
20040;SDS011;10181;48.072;9.884;2023-02-15T15:35:17;19.57;;;18.07;;
20040;SDS011;10181;48.072;9.884;2023-02-15T15:40:42;12.57;;;11.27;;
20040;SDS011;10181;48.072;9.884;2023-02-15T15:49:10;11.83;;;10.63;;
20040;SDS011;10181;48.072;9.884;2023-02-15T15:51:40;11.77;;;9.23;;
20040;SDS011;10181;48.072;9.884;2023-02-15T15:54:12;11.23;;;10.03;;
20040;SDS011;10181;48.072;9.884;2023-02-15T15:56:48;18.77;;;17.13;;
20040;SDS011;10181;48.072;9.884;2023-02-15T15:59:18;16.30;;;14.90;;
20040;SDS011;10181;48.072;9.884;2023-02-15T16:01:47;11.27;;;10.07;;
20040;SDS011;10181;48.072;9.884;2023-02-15T16:04:14;8.90;;;8.00;;
20040;SDS011;10181;48.072;9.884;2023-02-15T16:06:51;8.13;;;7.33;;
20040;SDS011;10181;48.072;9.884;2023-02-15T16:09:19;10.63;;;9.67;;
20040;SDS011;10181;48.072;9.884;2023-02-15T16:11:47;20.87;;;19.37;;
20040;SDS011;10181;48.072;9.884;2023-02-15T16:14:22;35.13;;;33.20;;
20040;SDS011;10181;48.072;9.884;2023-02-15T16:16:54;40.80;;;38.63;;
20040;SDS011;10181;48.072;9.884;2023-02-15T16:19:23;51.47;;;48.77;;
20040;SDS011;10181;48.072;9.884;2023-02-15T16:21:54;47.87;;;45.47;;
20040;SDS011;10181;48.072;9.884;2023-02-15T16:29:48;20.73;;;19.23;;
20040;SDS011;10181;48.072;9.884;2023-02-15T16:32:15;12.67;;;11.80;;
20040;SDS011;10181;48.072;9.884;2023-02-15T16:37:25;11.07;;;10.17;;
20040;SDS011;10181;48.072;9.884;2023-02-15T16:39:58;11.30;;;10.30;;
20040;SDS011;10181;48.072;9.884;2023-02-15T16:42:24;11.17;;;9.57;;
20040;SDS011;10181;48.072;9.884;2023-02-15T16:45:35;14.07;;;12.60;;
20040;SDS011;10181;48.072;9.884;2023-02-15T16:47:43;28.67;;;18.07;;
20040;SDS011;10181;48.072;9.884;2023-02-15T16:50:23;35.93;;;32.30;;
20040;SDS011;10181;48.072;9.884;2023-02-15T16:53:01;41.23;;;37.20;;
20040;SDS011;10181;48.072;9.884;2023-02-15T16:55:28;30.20;;;26.97;;
20040;SDS011;10181;48.072;9.884;2023-02-15T16:58:01;20.57;;;15.47;;
20040;SDS011;10181;48.072;9.884;2023-02-15T17:00:34;15.87;;;14.13;;
20040;SDS011;10181;48.072;9.884;2023-02-15T17:03:02;17.50;;;15.53;;
20040;SDS011;10181;48.072;9.884;2023-02-15T17:05:31;15.97;;;14.37;;
20040;SDS011;10181;48.072;9.884;2023-02-15T17:10:44;10.37;;;9.40;;
20040;SDS011;10181;48.072;9.884;2023-02-15T17:13:29;9.00;;;8.10;;
20040;SDS011;10181;48.072;9.884;2023-02-15T17:18:29;6.83;;;5.93;;
20040;SDS011;10181;48.072;9.884;2023-02-15T17:21:01;8.83;;;5.97;;
20040;SDS011;10181;48.072;9.884;2023-02-15T17:26:12;6.53;;;5.87;;
20040;SDS011;10181;48.072;9.884;2023-02-15T17:28:46;6.00;;;5.10;;
20040;SDS011;10181;48.072;9.884;2023-02-15T17:31:15;5.70;;;5.07;;
20040;SDS011;10181;48.072;9.884;2023-02-15T17:33:42;8.43;;;5.87;;
20040;SDS011;10181;48.072;9.884;2023-02-15T17:36:16;7.50;;;5.93;;
20040;SDS011;10181;48.072;9.884;2023-02-15T17:39:06;7.60;;;6.23;;
20040;SDS011;10181;48.072;9.884;2023-02-15T17:41:44;9.63;;;8.67;;
20040;SDS011;10181;48.072;9.884;2023-02-15T17:44:09;11.43;;;10.23;;
20040;SDS011;10181;48.072;9.884;2023-02-15T17:46:39;10.20;;;9.30;;
20040;SDS011;10181;48.072;9.884;2023-02-15T17:49:05;7.90;;;7.30;;
20040;SDS011;10181;48.072;9.884;2023-02-15T17:51:31;7.47;;;6.77;;
20040;SDS011;10181;48.072;9.884;2023-02-15T17:53:59;8.77;;;6.50;;
20040;SDS011;10181;48.072;9.884;2023-02-15T17:56:44;10.07;;;9.47;;
20040;SDS011;10181;48.072;9.884;2023-02-15T17:59:10;8.20;;;7.40;;
20040;SDS011;10181;48.072;9.884;2023-02-15T18:01:40;6.37;;;5.67;;